Home   Weather   Romania   Timișoara   Past weeks
Flag for Romania

Past Weather in Timișoara, Romania — Yesterday and Last 2 Weeks

Currently: 81 °F. Passing clouds. (Weather station: Timisoara Airport, Romania). See more current weather

Past Weather in Timișoara — Graph

°F

Timișoara Temperature Yesterday

Maximum temperature yesterday: 99 °F (at 3:00 pm)
Minimum temperature yesterday: 64 °F (at 5:30 am)
Average temperature yesterday: 82 °F

High & Low Weather Summary for the Past Weeks

 TemperatureHumidityPressure
High99 °F (Jul 28, 5:00 pm)100% (Jul 19, 1:30 am)30.12 "Hg (Jul 19, 1:30 am)
Low57 °F (Jul 22, 6:00 am)22% (Aug 1, 3:00 pm)29.62 "Hg (Aug 1, 7:30 pm)
Average77 °F65%29.92 "Hg
* Reported Jul 18 3:00 pm — Aug 2 3:30 pm, Timișoara. Weather by CustomWeather, © 2021

Note: Actual official high and low records may vary slightly from our data, if they occured in-between our weather recording intervals... More about our weather records

Timișoara Weather History for the Previous 24 Hours

Scroll right to see more
 ConditionsComfort  
Time TempWeatherWind HumidityBarometerVisibility
3:30 pm
Mon, Aug 2
81 °FPassing clouds.8 mph45%29.92 "HgN/A
3:00 pm82 °FPassing clouds.6 mph48%29.92 "HgN/A
2:30 pm81 °FSunny.6 mph51%29.92 "Hg10 mi
2:00 pm79 °FPassing clouds.7 mph58%29.92 "HgN/A
1:30 pm77 °FPassing clouds.6 mph61%29.92 "HgN/A
1:00 pm77 °FPassing clouds.5 mph65%29.92 "HgN/A
12:30 pm72 °FPassing clouds.8 mph78%29.92 "HgN/A
12:00 pm70 °FPassing clouds.9 mph88%29.92 "HgN/A
11:30 am72 °FPassing clouds.8 mph88%29.92 "HgN/A
11:00 am66 °FRain showers. Scattered clouds.9 mph100%29.89 "HgN/A
10:30 am68 °FPassing clouds.8 mph100%29.89 "HgN/A
10:00 am66 °FThundershowers. Passing clouds.9 mph100%29.89 "HgN/A
9:30 am68 °FScattered clouds.10 mph94%29.89 "HgN/A
9:00 am64 °FScattered clouds.12 mph100%29.86 "HgN/A
8:30 am64 °FThunderstorms. Scattered clouds.8 mph100%29.86 "Hg4 mi
8:00 am68 °FThunderstorms. Scattered clouds.13 mph100%29.83 "HgN/A
7:30 am68 °FScattered clouds.12 mph100%29.83 "HgN/A
7:00 am68 °FPassing clouds.7 mph100%29.83 "HgN/A
6:30 am68 °FSunny.6 mph100%29.80 "Hg10 mi
6:00 am68 °FClear.3 mph100%29.80 "Hg10 mi
5:30 am68 °FPassing clouds.5 mph100%29.80 "HgN/A
5:00 am68 °FClear.6 mph100%29.77 "Hg10 mi
4:30 am68 °FClear.7 mph94%29.77 "Hg10 mi
4:00 am66 °FClear.6 mph100%29.77 "Hg10 mi
2:30 am70 °FPassing clouds.1 mph88%29.74 "HgN/A
2:00 am70 °FClear.3 mph88%29.74 "Hg10 mi
1:30 am72 °FClear.8 mph78%29.74 "Hg10 mi
1:00 am73 °FPassing clouds.6 mph78%29.74 "HgN/A
12:30 am73 °FPassing clouds.9 mph78%29.77 "HgN/A
12:00 am75 °FClear.7 mph69%29.74 "Hg10 mi
11:30 pm
Sun, Aug 1
73 °FClear.8 mph78%29.74 "Hg10 mi
11:00 pm73 °FClear.10 mph78%29.74 "Hg10 mi
10:30 pm75 °FClear.8 mph74%29.71 "Hg10 mi
10:00 pm77 °FPassing clouds.17 mph65%29.71 "HgN/A
9:30 pm75 °FPassing clouds.7 mph83%29.65 "HgN/A
9:00 pm79 °FThundershowers. Passing clouds.10 mph61%29.65 "HgN/A
8:30 pm81 °FThunderstorms. Scattered clouds.22 mph58%29.68 "Hg5 mi
8:00 pm88 °FThundershowers. Passing clouds.6 mph46%29.62 "HgN/A
7:30 pm91 °FSunny.3 mph36%29.62 "Hg10 mi
7:00 pm93 °FSunny.2 mph34%29.65 "Hg10 mi
6:30 pm93 °FSunny.8 mph34%29.68 "Hg10 mi
6:00 pm95 °FPassing clouds.10 mph32%29.68 "HgN/A
5:30 pm97 °FPassing clouds.13 mph32%29.68 "HgN/A
5:00 pm99 °FSunny.15 mph27%29.71 "Hg10 mi
4:30 pm99 °FPassing clouds.15 mph27%29.68 "HgN/A
4:00 pm99 °FSunny.17 mph27%29.71 "Hg10 mi
Weather by CustomWeather, © 2021

See weather overview